Anchorage/Elmendorf AFB, Alaska
Current Conditions -  °F | °C
As of 4:58 AM on Sunday 25 Jan 2015 (Local Time) from PAED Reporting Station
Scattered Clouds Scattered Clouds  
Wind Chill: -18°   Ceiling: Unl
Heat Index: -18°   Visibility: 10mi
Dew Point: -22°   Wind: 3mph
Humidity: 74%   Direction: 80°E
Pressure: 29.56"   Gusts: NA
Location:  61.25°N, 149.79°W
Report Text: PAED 251358Z AUTO 08003KT 10SM SCT060 M18/M22 A2956 RMK AO2 SLP010 T11801216
Loading
Personal Weather Stations






























Interactive Weather Map New forecast layout! Learn more

10-Day Weather Forecast

Advertisements
Track Severe Weather on mobile